Conejos, Valles Caldera, New Mexico Weather observations

Data are for 10 minute period ending at time listed.
 Day   Time   Solar   Ave.   Ave.  Ave.  Vector  Max.   Baro.   Total    
  of    of     Rad.   Air    Rel.  Wind   Wind   Wind  Press.  Precip.   
Year   Day            Temp.  Hum.  Speed  Dir.   Gust                    
2015   (MST)  Kw/m2    F      %     mph   deg.    mph    mb.     in.     
-------------------------------------------------------------------------
 214   13:30   0.26   67.4    56    2.8   154     6.3   99999.0    0.00 
 214   13:40   0.27   66.9    56    3.4   161    10.8   99999.0    0.00 
 214   13:50   0.20   66.6    55    4.0   166     9.0   99999.0    0.00 
 214   14:00   0.26   66.7    56    2.4   122     6.0   99999.0    0.00 
 214   14:10   0.27   67.3    54    2.3   289     6.0   99999.0    0.00 
 214   14:20   0.30   67.5    53    1.9   256     4.2   99999.0    0.00 
 214   14:30   0.31   67.8    51    1.8   214     4.2   99999.0    0.00 
 214   14:40   0.31   68.8    51    2.8   147     9.0   99999.0    0.00 
 214   14:50   0.28   68.9    50    3.8   156     7.2   99999.0    0.00 
 214   15:00   0.25   68.3    51    4.8   169    10.2   99999.0    0.00 
 214   15:10   0.25   67.2    52    5.4   167    11.3   99999.0    0.00 
 214   15:20   0.26   66.8    58    3.7   154     8.4   99999.0    0.00 
 214   15:30   0.20   66.3    60    3.5   154     7.2   99999.0    0.00 
 214   15:40   0.18   66.1    60    2.8   152     5.4   99999.0    0.00 
 214   15:50   0.18   65.9    59    2.2   174     4.8   99999.0    0.00 
 214   16:00   0.15   66.2    60    1.8   228     3.6   99999.0    0.00 
 214   16:10   0.17   66.0    61    1.6     5     3.0   99999.0    0.00 
 214   16:20   0.18   65.4    62    1.8   345     3.6   99999.0    0.00 
 214   16:30   0.16   65.7    61    1.2   251     3.0   99999.0    0.00 
 214   16:40   0.15   66.0    60    1.8    92     4.8   99999.0    0.00 
 214   16:50   0.22   66.6    59    2.7   163     7.8   99999.0    0.00 
 214   17:00   0.17   66.7    55    2.3   174     4.2   99999.0    0.00 
 214   17:10   0.18   66.4    56    2.1   131     5.4   99999.0    0.00 
 214   17:20   0.12   66.1    55    2.9   156     6.0   99999.0    0.00 
 214   17:30   0.07   65.5    56    1.7   163     4.8   99999.0    0.00 
 214   17:40   0.07   64.9    57    1.6   190     4.2   99999.0    0.00 
 214   17:50   0.05   64.7    58    0.6   207     2.4   99999.0    0.00 
 214   18:00   0.04   64.2    58    0.7   188     2.4   99999.0    0.00 
 214   18:10   0.03   63.4    63    0.2   159     1.8   99999.0    0.00 
 214   18:20   0.03   62.3    66    0.6    66     1.8   99999.0    0.00 
 214   18:30   0.02   61.6    68    0.2    77     1.8   99999.0    0.00 
 214   18:40   0.02   61.1    70    0.0     0     0.0   99999.0    0.00 
 214   18:50   0.01   60.5    71    0.0     0     0.0   99999.0    0.00 
 214   19:00   0.00   60.0    71    0.0     0     0.0   99999.0    0.00 
 214   19:10   0.00   59.6    73    0.0     0     0.0   99999.0    0.00 
 214   19:20   0.00   59.2    73    0.0     0     0.0   99999.0    0.00 
 214   19:30   0.00   59.2    73    0.0     0     0.0   99999.0    0.00 
 214   19:40   0.00   58.9    74    0.0     0     0.0   99999.0    0.00 
 214   19:50   0.00   58.5    75    0.0     0     0.0   99999.0    0.00 
 214   20:00   0.00   58.3    74    0.0     0     0.0   99999.0    0.00 
 214   20:10   0.00   58.2    73    0.3   186     1.8   99999.0    0.00 
 214   20:20   0.00   58.1    76    0.0     0     0.0   99999.0    0.00 
 214   20:30   0.00   58.0    76    0.0     0     0.0   99999.0    0.00 
 214   20:40   0.00   58.4    74    0.2   196     1.2   99999.0    0.00 
 214   20:50   0.00   58.4    75    0.0     0     0.0   99999.0    0.00 
 214   21:00   0.00   57.9    77    0.5   175     1.2   99999.0    0.00 
 214   21:10   0.00   57.7    79    0.0   179     1.2   99999.0    0.00 
 214   21:20   0.00   58.0    78    0.0     0     0.0   99999.0    0.00 
 214   21:30   0.00   57.8    81    0.0     0     0.0   99999.0    0.00 
 214   21:40   0.00   57.2    83    0.3   202     1.2   99999.0    0.00 
 214   21:50   0.00   57.6    80    0.0   232     1.2   99999.0    0.00 
 214   22:00   0.00   57.0    84    0.5   343     1.8   99999.0    0.00 
 214   22:10   0.00   56.0    86    1.4   301     2.4   99999.0    0.00 
 214   22:20   0.00   56.0    86    1.0   231     1.8   99999.0    0.00 
 214   22:30   0.00   55.9    84    1.5   167     3.6   99999.0    0.00 
 214   22:40   0.00   56.8    85    2.0   167     4.8   99999.0    0.00 
 214   22:50   0.00   56.5    89    2.0   161     4.8   99999.0    0.00 
 214   23:00   0.00   56.1    92    0.9   356     1.8   99999.0    0.00 
 214   23:10   0.00   55.6    93    2.2    12     4.2   99999.0    0.00 
 214   23:20   0.00   55.4    92    3.1   326     6.0   99999.0    0.00 
 214   23:30   0.00   55.1    92    4.1   327     9.6   99999.0    0.00 
 214   23:40   0.00   54.8    92    3.9   328     7.8   99999.0    0.00 
 214   23:50   0.00   54.8    90    3.8   337     6.6   99999.0    0.00 
 215    0:00   0.00   54.8    89    3.3   339     4.8   99999.0    0.00 
 215    0:10   0.00   54.7    88    3.9   344     6.6   99999.0    0.00 
 215    0:20   0.00   54.7    86    4.5   340     7.2   99999.0    0.00 
 215    0:30   0.00   54.7    85    4.2   337     6.6   99999.0    0.00 
 215    0:40   0.00   54.8    83    3.3   334     6.0   99999.0    0.00 
 215    0:50   0.00   54.9    79    3.0   345     6.0   99999.0    0.00 
 215    1:00   0.00   55.1    76    1.2   308     3.0   99999.0    0.00 
 215    1:10   0.00   55.3    74    1.5   275     3.0   99999.0    0.00 
 215    1:20   0.00   54.6    79    0.3    35     1.8   99999.0    0.00 
 215    1:30   0.00   53.8    82    0.4   158     1.8   99999.0    0.00 
 215    1:40   0.00   52.9    85    0.9   171     1.8   99999.0    0.00 
 215    1:50   0.00   52.0    88    1.1   161     2.4   99999.0    0.00 
 215    2:00   0.00   51.4    89    0.8   158     1.8   99999.0    0.00 
 215    2:10   0.00   51.6    89    1.3   163     2.4   99999.0    0.00 
 215    2:20   0.00   52.9    84    1.5   179     2.4   99999.0    0.00 
 215    2:30   0.00   54.3    79    0.6   127     2.4   99999.0    0.00 
 215    2:40   0.00   54.5    78    1.2   163     3.0   99999.0    0.00 
 215    2:50   0.00   54.6    79    1.7   104     3.6   99999.0    0.00 
 215    3:00   0.00   55.1    79    1.4   321     3.0   99999.0    0.00 
 215    3:10   0.00   55.2    80    1.8    20     4.2   99999.0    0.00 
 215    3:20   0.00   55.1    81    1.1   129     3.0   99999.0    0.00 
 215    3:30   0.00   54.7    81    0.4   201     1.8   99999.0    0.00 
 215    3:40   0.00   54.0    82    0.1   277     1.2   99999.0    0.00 
 215    3:50   0.00   53.3    84    0.6   314     1.8   99999.0    0.00 
 215    4:00   0.00   52.4    86    0.8   198     2.4   99999.0    0.00 
 215    4:10   0.00   52.2    86    0.0     0     0.0   99999.0    0.00 
 215    4:20   0.00   51.3    88    0.0     0     0.0   99999.0    0.00 
 215    4:30   100.00  99999.0   99999  99999.0   99999   99999.0   99999.0   99999.00 
 215    4:40   100.00  99999.0   99999  99999.0   99999   99999.0   99999.0   99999.00 
 215    4:50   100.00  99999.0   99999  99999.0   99999   99999.0   99999.0   99999.00 
 215    5:00   100.00  99999.0   99999  99999.0   99999   99999.0   99999.0   99999.00 
 215    5:10   100.00  99999.0   99999  99999.0   99999   99999.0   99999.0   99999.00 
 215    5:20   100.00  99999.0   99999  99999.0   99999   99999.0   99999.0   99999.00 
 215    5:30   0.00   49.0    95    0.0     0     0.0   99999.0    0.00 
 215    5:40   0.01   50.8    91    0.4   298     1.8   99999.0    0.00 
 215    5:50   0.01   51.6    87    0.2   307     1.2   99999.0    0.00 
 215    6:00   0.02   51.8    86    0.0     0     0.0   99999.0    0.00 
 215    6:10   0.04   51.8    86    0.0   312     1.2   99999.0    0.00 
 215    6:20   0.03   51.1    89    0.0   241     1.2   99999.0    0.00 
 215    6:30   0.03   51.2    90    0.3   325     1.8   99999.0    0.00 
 215    6:40   0.04   52.4    88    1.2   342     1.8   99999.0    0.00 
 215    6:50   0.04   53.7    85    1.5   352     2.4   99999.0    0.00 
 215    7:00   0.04   54.2    86    1.3     3     2.4   99999.0    0.00 
 215    7:10   0.04   55.7    81    1.9   335     3.6   99999.0    0.00 
 215    7:20   0.04   57.6    74    1.8   324     4.2   99999.0    0.00 
 215    7:30   0.09   58.2    73    1.7   348     3.6   99999.0    0.00 
 215    7:40   0.08   58.5    73    0.9    50     3.0   99999.0    0.00 
 215    7:50   0.12   58.4    73    2.1   278     5.4   99999.0    0.00 
 215    8:00   0.11   58.6    73    2.4   153     4.2   99999.0    0.00 
 215    8:10   0.17   58.7    71    3.2   166     6.0   99999.0    0.00 
 215    8:20   0.57   59.1    71    1.9   312     4.8   99999.0    0.00 
 215    8:30   0.64   60.0    69    2.0   298     4.2   99999.0    0.00 
 215    8:40   0.66   60.1    68    2.5   274     5.4   99999.0    0.00 
 215    8:50   0.69   60.8    67    2.1   306     4.8   99999.0    0.00 
 215    9:00   0.72   61.9    65    2.9   332     4.8   99999.0    0.00 
 215    9:10   0.75   62.0    64    3.0   331     6.6   99999.0    0.00 
 215    9:20   0.79   63.3    62    2.5   346     5.4   99999.0    0.00 
 215    9:30   0.82   63.9    62    2.1   296     4.2   99999.0    0.00 
 215    9:40   0.82   64.2    61    2.5   284     6.0   99999.0    0.00 
 215    9:50   0.87   64.3    62    3.0   280     5.4   99999.0    0.00 
 215   10:00   0.89   64.6    61    3.0   250     6.6   99999.0    0.00 
 215   10:10   0.92   65.6    58    2.3   305     4.8   99999.0    0.00 
 215   10:20   0.94   65.9    58    2.5   292     4.8   99999.0    0.00 
 215   10:30   0.77   66.0    57    3.1   261     8.4   99999.0    0.00 
 215   10:40   1.01   65.2    57    2.7     9     5.4   99999.0    0.00 
 215   10:50   0.79   66.4    54    3.1   349     8.4   99999.0    0.00 
 215   11:00   0.82   67.5    55    2.7   357     6.6   99999.0    0.00 
 215   11:10   0.97   68.1    55    2.6   316     5.4   99999.0    0.00 
 215   11:20   1.01   68.5    54    2.9    42     9.0   99999.0    0.00 
 215   11:30   0.92   69.7    50    3.0   183     7.8   99999.0    0.00 
 215   11:40   0.99   70.1    49    2.7   318     4.8   99999.0    0.00 
 215   11:50   1.03   70.7    40    3.6   343     7.8   99999.0    0.00 
 215   12:00   1.00   71.4    31    4.2   319    10.8   99999.0    0.00 
 215   12:10   1.05   71.3    29    4.7    16    10.2   99999.0    0.00 
 215   12:20   1.04   70.7    28    4.8   335    10.2   99999.0    0.00 
 215   12:30   0.95   71.2    29    4.5    28    10.8   99999.0    0.00 
 215   12:40   1.01   72.3    29    3.7    22     8.1   99999.0    0.00 
 215   12:50   1.00   72.7    30    3.9   357     7.8   99999.0    0.00 
 215   13:00   0.95   72.5    32    4.3    33     8.4   99999.0    0.00 
 215   13:10   0.97   71.3    33    4.7     5     9.0   99999.0    0.00 
 215   13:20   0.96   71.7    33    4.8    10     9.0   99999.0    0.00 

Return to Conejos, Valles Caldera graphs page.


Western Regional Climate Center,wrcc@dri.edu